Time;durP1;ratioP1;P1;durP2;ratioP2;P2;SDS_P1;SDS_P2;PMS_P1;PMS_P2;Temp;Humidity;BMP_temperature;BMP_pressure;BME280_temperature;BME280_humidity;BME280_pressure;Samples;Min_cycle;Max_cycle;Signal;HPM_P1;HPM_P2
2022/01/22 00:00:28;;;;;;;12.37;7.80;;;;;;;1.95;77.21;101246.19;4940769;28;20224;-78
2022/01/22 00:02:53;;;;;;;10.80;8.07;;;;;;;1.95;77.31;101241.00;4953481;28;20213;-76
2022/01/22 00:05:20;;;;;;;8.67;7.70;;;;;;;1.96;77.33;101237.53;4953315;28;20586;-77
2022/01/22 00:07:46;;;;;;;9.57;7.10;;;;;;;1.99;77.11;101244.44;4954490;28;20224;-76
2022/01/22 00:10:14;;;;;;;11.53;7.20;;;;;;;1.97;77.13;101236.69;4956404;28;20263;-76
2022/01/22 00:15:22;;;;;;;10.82;7.88;;;;;;;2.03;77.00;101224.59;4958160;28;20290;-76
2022/01/22 00:17:49;;;;;;;14.95;10.38;;;;;;;2.08;76.74;101228.00;4947054;28;20716;-77
2022/01/22 00:20:17;;;;;;;9.70;8.70;;;;;;;2.11;76.75;101223.69;4957025;28;20211;-76
2022/01/22 00:22:43;;;;;;;9.82;7.13;;;;;;;2.14;76.22;101215.03;4958544;28;20204;-77
2022/01/22 00:25:11;;;;;;;10.85;7.78;;;;;;;2.14;76.66;101220.22;4955711;28;20223;-76
2022/01/22 00:27:41;;;;;;;7.95;7.15;;;;;;;2.08;76.41;101226.31;4953832;28;20303;-77
2022/01/22 00:30:10;;;;;;;8.77;7.28;;;;;;;2.02;76.49;101215.91;4938111;28;20266;-76
2022/01/22 00:32:36;;;;;;;16.63;8.55;;;;;;;1.96;77.16;101228.91;4958184;28;20244;-77
2022/01/22 00:35:01;;;;;;;13.68;7.43;;;;;;;1.91;77.31;101226.31;4953905;28;20657;-76
2022/01/22 00:37:27;;;;;;;9.67;6.93;;;;;;;1.88;77.26;101223.72;4951831;28;20217;-76
2022/01/22 00:39:52;;;;;;;11.03;8.13;;;;;;;1.86;77.59;101220.28;4958667;28;20776;-76
2022/01/22 00:42:18;;;;;;;8.20;5.90;;;;;;;1.85;77.56;101231.53;4937617;28;20220;-77
2022/01/22 00:44:46;;;;;;;9.02;6.90;;;;;;;1.85;77.48;101226.34;4934362;28;20711;-78
2022/01/22 00:47:11;;;;;;;7.43;5.43;;;;;;;1.89;77.37;101233.25;4956291;28;20247;-77
2022/01/22 00:49:37;;;;;;;9.33;6.57;;;;;;;1.92;77.61;101228.06;4957522;28;20299;-76
2022/01/22 00:52:04;;;;;;;10.20;6.37;;;;;;;1.96;77.41;101223.72;4956365;28;20204;-76
2022/01/22 00:54:30;;;;;;;7.47;5.40;;;;;;;2.01;77.62;101221.13;4962253;28;20511;-77
2022/01/22 00:56:55;;;;;;;8.23;5.77;;;;;;;2.05;77.37;101230.59;4957770;28;20295;-76
2022/01/22 00:59:21;;;;;;;8.57;6.73;;;;;;;2.07;77.23;101229.72;4947114;28;20459;-77
2022/01/22 01:01:46;;;;;;;7.80;5.47;;;;;;;2.11;77.24;101230.63;4961495;28;20823;-76
2022/01/22 01:04:12;;;;;;;10.97;6.60;;;;;;;2.13;77.06;101226.25;4959817;28;20681;-77
2022/01/22 01:06:38;;;;;;;11.03;7.53;;;;;;;2.13;77.39;101228.84;4958598;28;20229;-77
2022/01/22 01:09:07;;;;;;;8.73;5.95;;;;;;;2.15;77.29;101225.38;4961484;28;20208;-77
2022/01/22 01:11:38;;;;;;;7.03;6.32;;;;;;;2.17;77.32;101222.81;4953935;28;20303;-76
2022/01/22 01:14:06;;;;;;;10.30;6.10;;;;;;;2.20;77.08;101228.84;4950971;28;20322;-78
2022/01/22 01:33:05;;;;;;;7.35;4.90;;;;;;;2.10;77.12;101215.91;4952701;28;20218;-74
2022/01/22 01:35:33;;;;;;;7.30;4.70;;;;;;;2.05;77.31;101221.09;4958362;28;20275;-76
2022/01/22 01:38:01;;;;;;;5.60;4.70;;;;;;;2.03;77.44;101227.19;4965251;28;20223;-77
2022/01/22 01:40:28;;;;;;;7.55;5.63;;;;;;;2.02;77.87;101230.63;4988204;28;20204;-76
2022/01/22 01:45:19;;;;;;;9.80;4.67;;;;;;;2.02;77.41;101221.09;4985331;28;20206;-77
2022/01/22 01:47:58;;;;;;;4.80;3.35;;;;;;;2.00;77.55;101217.69;4984148;28;20246;-77
2022/01/22 01:50:23;;;;;;;6.30;4.15;;;;;;;1.98;77.60;101222.84;4975510;28;20696;-77
2022/01/22 01:53:04;;;;;;;5.13;4.00;;;;;;;1.97;77.88;101231.50;4982400;28;20200;-78
2022/01/22 01:57:24;;;;;;;7.28;3.92;;;;;;;1.96;77.98;101234.94;4986916;28;20210;-78
2022/01/22 01:58:30;;;;;;;5.00;4.05;;;;;;;1.98;77.79;101242.72;4977163;28;20394;-77
2022/01/22 02:01:00;;;;;;;9.38;4.38;;;;;;;2.02;77.79;101238.41;4980567;28;20203;-78
2022/01/22 02:03:26;;;;;;;5.22;4.05;;;;;;;2.05;77.66;101235.78;4967285;28;20636;-77
2022/01/22 02:06:04;;;;;;;7.10;4.10;;;;;;;2.06;77.44;101232.34;4975961;28;20335;-77
2022/01/22 02:08:31;;;;;;;8.57;3.85;;;;;;;2.10;77.60;101228.88;4974739;28;20231;-78
2022/01/22 02:11:03;;;;;;;7.75;4.57;;;;;;;2.10;77.51;101221.94;4978634;28;20569;-77
2022/01/22 02:25:31;;;;;;;6.38;3.80;;;;;;;1.98;78.03;101228.03;4984003;28;20203;-78
2022/01/22 02:27:59;;;;;;;9.05;4.43;;;;;;;1.98;78.03;101222.84;4985314;28;20864;-81
2022/01/22 02:30:29;;;;;;;6.15;4.07;;;;;;;2.02;78.38;101221.09;4983290;28;20294;-76
2022/01/22 02:33:28;;;;;;;7.53;4.10;;;;;;;2.04;78.04;101219.38;4987836;28;20663;-77
2022/01/22 02:36:05;;;;;;;8.55;5.00;;;;;;;2.05;78.07;101220.25;4973879;28;20266;-77
2022/01/22 02:38:42;;;;;;;8.30;5.15;;;;;;;2.04;78.13;101227.16;4983571;28;20234;-77
2022/01/22 02:41:13;;;;;;;8.43;4.95;;;;;;;2.04;78.19;101221.97;4975665;28;20354;-80
2022/01/22 02:43:39;;;;;;;6.30;4.38;;;;;;;2.02;78.34;101231.47;4974319;28;20286;-77
2022/01/22 02:46:04;;;;;;;7.80;5.47;;;;;;;1.99;78.17;101219.38;4983377;28;20235;-77
2022/01/22 02:48:30;;;;;;;5.60;4.77;;;;;;;1.99;78.47;101216.78;4976677;28;20231;-77
2022/01/22 02:50:56;;;;;;;7.00;5.10;;;;;;;1.99;78.38;101221.97;4966262;28;20920;-77
2022/01/22 02:53:21;;;;;;;12.73;7.03;;;;;;;1.98;78.39;101225.44;4975715;28;20212;-77
2022/01/22 02:55:47;;;;;;;10.17;6.80;;;;;;;1.97;78.44;101225.44;4974640;28;20198;-77
2022/01/22 02:58:14;;;;;;;13.77;7.13;;;;;;;1.94;78.25;101210.75;4974167;28;20315;-77
2022/01/22 03:00:41;;;;;;;11.73;7.43;;;;;;;1.93;78.57;101211.63;4983060;28;20668;-80
2022/01/22 03:03:07;;;;;;;12.30;6.88;;;;;;;1.94;78.41;101205.56;4967330;28;20199;-77
2022/01/22 03:06:01;;;;;;;16.02;7.90;;;;;;;1.97;78.76;101220.25;4970111;28;20298;-77
2022/01/22 03:08:29;;;;;;;8.00;5.57;;;;;;;1.96;78.21;101219.41;4973474;28;20307;-77
2022/01/22 03:10:55;;;;;;;10.68;6.05;;;;;;;1.94;78.46;101217.66;4973885;28;20337;-79
2022/01/22 03:16:47;;;;;;;8.23;6.53;;;;;;;1.95;78.34;101209.06;4975417;28;20198;-77
2022/01/22 03:19:08;;;;;;;6.30;5.63;;;;;;;1.97;78.34;101223.72;4976263;28;20286;-77
2022/01/22 03:21:56;;;;;;;6.85;5.63;;;;;;;1.99;78.24;101232.34;4975195;28;20249;-76
2022/01/22 03:27:22;;;;;;;8.40;6.10;;;;;;;1.96;77.97;101228.91;4956978;28;20265;-78
2022/01/22 03:29:48;;;;;;;9.05;6.40;;;;;;;1.98;77.74;101222.84;4984200;28;20592;-77
2022/01/22 03:32:13;;;;;;;7.00;5.30;;;;;;;2.03;77.48;101227.19;4966966;28;21094;-77
2022/01/22 03:35:07;;;;;;;8.53;5.53;;;;;;;2.05;77.30;101225.41;4966223;28;20715;-77
2022/01/22 03:37:33;;;;;;;8.50;5.82;;;;;;;2.02;77.50;101226.28;4982868;28;20215;-77
2022/01/22 03:39:58;;;;;;;7.60;5.73;;;;;;;2.00;77.38;101225.47;4964714;28;20317;-77
2022/01/22 03:42:24;;;;;;;10.20;6.40;;;;;;;2.01;77.56;101221.13;4968413;28;20302;-77
2022/01/22 03:44:50;;;;;;;12.40;7.00;;;;;;;2.01;77.31;101213.34;4981721;28;20213;-80
2022/01/22 03:47:15;;;;;;;10.30;6.80;;;;;;;2.02;77.31;101212.47;4972484;28;20250;-77
2022/01/22 03:49:41;;;;;;;10.20;8.05;;;;;;;2.01;76.64;101214.22;4973835;28;20612;-78
2022/01/22 03:52:11;;;;;;;8.40;7.53;;;;;;;1.98;76.80;101216.81;4972603;28;20212;-79
2022/01/22 03:54:36;;;;;;;11.70;8.47;;;;;;;1.96;76.63;101210.75;4949942;28;21075;-77
2022/01/22 03:57:02;;;;;;;17.23;9.00;;;;;;;1.96;76.63;101211.63;4982943;28;20200;-80
2022/01/22 03:59:34;;;;;;;13.20;8.10;;;;;;;1.97;76.25;101212.47;4982437;28;20199;-77
2022/01/22 04:05:01;;;;;;;11.82;7.70;;;;;;;1.92;75.72;101206.47;4971542;28;20243;-76
2022/01/22 04:09:56;;;;;;;16.13;8.30;;;;;;;1.90;75.22;101205.59;4982420;28;20195;-76
2022/01/22 04:12:30;;;;;;;10.73;8.88;;;;;;;1.89;75.34;101207.34;4983824;28;20752;-77
2022/01/22 04:15:01;;;;;;;10.73;9.10;;;;;;;1.90;75.18;101211.66;4965202;28;20265;-76
2022/01/22 04:25:32;;;;;;;12.73;9.13;;;;;;;1.97;74.62;101203.00;4986867;28;20221;-76
2022/01/22 04:27:58;;;;;;;11.00;8.80;;;;;;;1.95;74.44;101199.53;4969981;28;20250;-77
2022/01/22 04:30:26;;;;;;;14.93;8.67;;;;;;;1.92;74.24;101199.56;4990532;28;20216;-77
2022/01/22 04:32:51;;;;;;;12.85;9.30;;;;;;;1.88;74.13;101205.59;4990428;28;20200;-76
2022/01/22 04:35:18;;;;;;;13.07;9.47;;;;;;;1.87;74.41;101203.03;4966562;28;20263;-77
2022/01/22 04:37:45;;;;;;;10.38;9.27;;;;;;;1.87;74.47;101198.69;4986873;28;20223;-77
2022/01/22 04:40:12;;;;;;;10.52;7.85;;;;;;;1.87;74.20;101209.06;4971224;28;20207;-76
2022/01/22 04:42:39;;;;;;;12.50;8.98;;;;;;;1.86;74.52;101209.91;4985554;28;20211;-79
2022/01/22 04:55:42;;;;;;;14.10;10.10;;;;;;;1.70;74.60;101208.22;4974919;28;20660;-76
2022/01/22 04:58:08;;;;;;;12.43;9.90;;;;;;;1.71;74.85;101207.38;4967263;28;20239;-77
2022/01/22 05:00:38;;;;;;;11.80;9.60;;;;;;;1.74;74.79;101204.78;4971052;28;20682;-79
2022/01/22 05:03:06;;;;;;;16.85;9.55;;;;;;;1.76;74.69;101200.47;4988496;28;20215;-77
2022/01/22 05:05:50;;;;;;;17.60;10.15;;;;;;;1.76;74.57;101203.91;4990953;28;20314;-78
2022/01/22 05:08:33;;;;;;;17.48;10.10;;;;;;;1.78;74.20;101196.09;4974630;28;20357;-76
2022/01/22 05:11:25;;;;;;;10.68;9.25;;;;;;;1.82;74.39;101192.66;4984562;28;20219;-77
2022/01/22 05:13:52;;;;;;;11.73;8.50;;;;;;;1.84;74.44;101201.31;4969260;28;20211;-76
2022/01/22 05:16:19;;;;;;;17.95;8.88;;;;;;;1.86;74.29;101198.69;4975168;28;20200;-77
2022/01/22 05:18:53;;;;;;;20.25;9.80;;;;;;;1.87;74.06;101206.47;4977094;28;20223;-76
2022/01/22 05:21:21;;;;;;;13.38;9.40;;;;;;;1.87;74.30;101216.84;4973802;28;20235;-80
2022/01/22 05:23:47;;;;;;;12.60;9.68;;;;;;;1.86;74.26;101211.66;4977627;28;20255;-77
2022/01/22 05:38:08;;;;;;;11.88;9.85;;;;;;;1.98;73.59;101233.22;4985411;28;20287;-78
2022/01/22 05:40:35;;;;;;;11.43;7.60;;;;;;;2.01;73.86;101234.09;4981464;28;20220;-76
2022/01/22 05:43:00;;;;;;;12.85;7.90;;;;;;;2.03;73.54;101237.53;4986945;28;20211;-76
2022/01/22 05:45:26;;;;;;;13.13;9.00;;;;;;;2.02;73.68;101239.25;4976232;28;20196;-78
2022/01/22 05:47:52;;;;;;;16.33;9.73;;;;;;;2.01;73.61;101240.13;4985935;28;20252;-76
2022/01/22 05:50:32;;;;;;;13.43;9.87;;;;;;;1.98;73.53;101241.00;4983881;28;20255;-76
2022/01/22 05:53:06;;;;;;;10.52;8.00;;;;;;;1.98;73.77;101242.72;4987520;28;20199;-76
2022/01/22 06:01:10;;;;;;;20.95;13.23;;;;;;;1.96;73.85;101247.03;4984305;28;20207;-76
2022/01/22 06:04:05;;;;;;;39.58;22.70;;;;;;;1.96;74.06;101247.03;4970441;28;20249;-77
2022/01/22 06:06:31;;;;;;;32.93;19.43;;;;;;;1.96;73.98;101242.72;4976810;28;20231;-77
2022/01/22 06:09:02;;;;;;;20.73;11.95;;;;;;;1.95;74.25;101250.50;4965520;28;20556;-76
2022/01/22 06:11:30;;;;;;;18.77;11.80;;;;;;;1.96;74.33;101250.50;4970819;28;20210;-77
2022/01/22 06:13:56;;;;;;;11.85;10.30;;;;;;;1.97;74.19;101257.41;4983840;28;20212;-77
2022/01/22 06:16:44;;;;;;;11.48;9.13;;;;;;;1.96;74.14;101252.22;4978672;28;20675;-76
2022/01/22 06:19:27;;;;;;;12.30;7.80;;;;;;;1.95;74.34;101253.97;4974182;28;20232;-76
2022/01/22 06:21:53;;;;;;;13.77;10.43;;;;;;;1.96;74.23;101258.28;4985059;28;20232;-76
2022/01/22 06:24:19;;;;;;;16.70;8.65;;;;;;;1.95;74.19;101261.72;4965434;28;20204;-79
2022/01/22 06:26:45;;;;;;;12.40;8.63;;;;;;;1.95;74.06;101272.09;4982947;28;20895;-77
2022/01/22 06:29:11;;;;;;;11.73;10.03;;;;;;;1.94;74.18;101275.53;4965014;28;20244;-77
2022/01/22 06:31:37;;;;;;;10.52;8.55;;;;;;;1.95;73.74;101277.28;4972529;28;20626;-76
2022/01/22 06:34:04;;;;;;;11.80;8.38;;;;;;;1.94;73.97;101280.72;4974833;28;20751;-76
2022/01/22 06:36:31;;;;;;;12.05;7.80;;;;;;;1.94;73.93;101274.69;4974301;28;20234;-76
2022/01/22 06:39:11;;;;;;;14.77;7.85;;;;;;;1.94;73.91;101279.88;4985719;28;20297;-76
2022/01/22 06:41:59;;;;;;;8.95;6.65;;;;;;;1.93;73.60;101271.22;4977672;28;20208;-78
2022/01/22 06:44:51;;;;;;;10.00;7.40;;;;;;;1.91;73.71;101283.31;4967320;28;20208;-77
2022/01/22 06:47:47;;;;;;;16.00;8.70;;;;;;;1.88;73.68;101288.50;4969850;28;20223;-76
2022/01/22 06:50:22;;;;;;;10.77;7.80;;;;;;;1.87;73.76;101284.22;4969540;28;20195;-76
2022/01/22 06:52:55;;;;;;;13.15;10.68;;;;;;;1.89;74.16;101281.59;4986061;28;20273;-78
2022/01/22 06:56:02;;;;;;;10.75;8.15;;;;;;;1.90;73.56;101284.19;4976797;28;20199;-77
2022/01/22 06:58:18;;;;;;;8.50;7.35;;;;;;;1.91;73.88;101285.91;4981815;28;20275;-77
2022/01/22 07:00:50;;;;;;;9.63;8.65;;;;;;;1.94;73.95;101275.53;4973501;28;20205;-77
2022/01/22 07:03:22;;;;;;;15.65;8.50;;;;;;;1.98;73.73;101282.47;4966547;28;20860;-78
2022/01/22 07:05:55;;;;;;;20.65;8.07;;;;;;;2.02;73.77;101285.03;4968137;28;20587;-78
2022/01/22 07:08:24;;;;;;;12.80;9.60;;;;;;;2.05;74.03;101285.03;4974502;28;20215;-77
2022/01/22 07:10:55;;;;;;;11.98;7.85;;;;;;;2.05;73.53;101285.03;4983687;28;20223;-77
2022/01/22 07:13:21;;;;;;;13.30;7.47;;;;;;;2.06;73.50;101284.19;4982906;28;20318;-77
2022/01/22 07:15:48;;;;;;;5.97;5.38;;;;;;;2.05;73.78;101285.88;4973675;28;20556;-77
2022/01/22 07:18:18;;;;;;;10.73;6.68;;;;;;;2.04;73.40;101289.34;4972781;28;20219;-77
2022/01/22 07:20:45;;;;;;;9.57;6.40;;;;;;;2.05;73.51;101290.22;4985748;28;20258;-78
2022/01/22 07:23:43;;;;;;;8.55;7.25;;;;;;;2.04;73.26;101286.78;4975009;28;20204;-77
2022/01/22 07:26:08;;;;;;;8.70;7.13;;;;;;;2.05;72.87;101287.63;4981941;28;20247;-78
2022/01/22 07:28:56;;;;;;;8.45;5.88;;;;;;;2.06;73.07;101295.41;4977835;23;20240;-76
2022/01/22 07:31:24;;;;;;;9.20;7.13;;;;;;;2.06;73.03;101295.41;4959070;28;20204;-77
2022/01/22 07:33:50;;;;;;;7.88;6.75;;;;;;;2.06;72.70;101298.00;4968043;28;20235;-76
2022/01/22 07:36:16;;;;;;;7.38;5.85;;;;;;;2.07;72.70;101298.88;4953501;28;20417;-76
2022/01/22 07:38:42;;;;;;;13.63;6.67;;;;;;;2.07;72.83;101297.13;4957767;28;20705;-75
2022/01/22 07:41:11;;;;;;;10.98;7.35;;;;;;;2.10;72.22;101307.47;4955282;28;20456;-74
2022/01/22 07:43:40;;;;;;;11.02;7.70;;;;;;;2.10;72.14;101320.44;4958033;28;20324;-75
2022/01/22 07:46:21;;;;;;;12.88;8.55;;;;;;;2.09;72.40;101308.38;4971188;28;20291;-75
2022/01/22 07:48:49;;;;;;;9.93;8.02;;;;;;;2.09;71.99;101315.28;4955552;28;20246;-75
2022/01/22 07:51:33;;;;;;;15.60;7.70;;;;;;;2.07;71.93;101317.88;4954210;28;20200;-75
2022/01/22 07:54:00;;;;;;;11.45;7.68;;;;;;;2.07;72.13;101309.22;4958434;28;20204;-75
2022/01/22 07:56:28;;;;;;;11.10;7.40;;;;;;;2.07;72.02;101307.50;4972360;28;20200;-75
2022/01/22 07:58:54;;;;;;;9.97;8.00;;;;;;;2.10;72.02;101309.22;4956145;28;20219;-75
2022/01/22 08:01:21;;;;;;;9.40;6.28;;;;;;;2.12;71.92;101323.06;4939392;28;20695;-76
2022/01/22 08:04:04;;;;;;;8.77;7.05;;;;;;;2.13;71.79;101319.59;4976370;28;20742;-75
2022/01/22 08:06:49;;;;;;;8.32;7.53;;;;;;;2.14;71.63;101318.72;4974789;28;20271;-75
2022/01/22 08:09:33;;;;;;;12.05;8.18;;;;;;;2.13;71.79;101323.06;4977665;28;20335;-75
2022/01/22 08:12:21;;;;;;;12.38;8.23;;;;;;;2.15;71.54;101325.63;4963931;28;20207;-76
2022/01/22 08:14:50;;;;;;;15.15;7.93;;;;;;;2.16;71.46;101316.97;4953204;28;20224;-75
2022/01/22 08:17:15;;;;;;;16.90;10.93;;;;;;;2.17;71.56;101313.53;4953667;28;20704;-75
2022/01/22 08:19:42;;;;;;;18.63;12.55;;;;;;;2.17;71.36;101318.72;4970607;28;21039;-75
2022/01/22 08:22:26;;;;;;;17.52;11.30;;;;;;;2.15;71.25;101325.63;4974106;28;20270;-75
2022/01/22 08:25:11;;;;;;;15.90;11.13;;;;;;;2.16;71.34;101338.59;4966964;28;20223;-76
2022/01/22 08:30:22;;;;;;;15.13;9.27;;;;;;;2.19;71.30;101333.41;4957255;28;20301;-75
2022/01/22 08:38:16;;;;;;;13.02;10.00;;;;;;;2.33;71.05;101329.94;4949774;28;20196;-75
2022/01/22 08:40:41;;;;;;;13.00;10.93;;;;;;;2.32;70.99;101325.59;4949558;28;20214;-75
2022/01/22 08:43:06;;;;;;;17.90;9.67;;;;;;;2.31;70.95;101334.25;4967418;28;20235;-75
2022/01/22 08:45:32;;;;;;;21.10;11.50;;;;;;;2.28;71.02;101329.06;4954163;28;20204;-75
2022/01/22 08:47:59;;;;;;;12.60;9.05;;;;;;;2.28;71.14;101337.72;4950760;28;20203;-75
2022/01/22 08:50:24;;;;;;;16.13;9.80;;;;;;;2.29;71.02;101334.25;4971347;28;20323;-75
2022/01/22 08:52:50;;;;;;;15.33;9.70;;;;;;;2.29;70.76;101347.19;4952299;28;20743;-76
2022/01/22 08:55:15;;;;;;;14.80;9.27;;;;;;;2.29;70.67;101346.34;4955234;28;20913;-77
2022/01/22 08:57:41;;;;;;;14.40;9.60;;;;;;;2.31;70.97;101347.22;4952917;28;20204;-75
2022/01/22 09:00:10;;;;;;;11.95;9.07;;;;;;;2.35;71.03;101344.63;4955219;28;20258;-76
2022/01/22 09:02:49;;;;;;;12.60;8.80;;;;;;;2.39;71.10;101342.88;4957515;28;20669;-75
2022/01/22 09:05:35;;;;;;;14.52;9.90;;;;;;;2.40;70.52;101337.69;4956360;28;20207;-76
2022/01/22 09:08:40;;;;;;;17.17;10.65;;;;;;;2.39;70.71;101330.78;4974872;28;20245;-76
2022/01/22 09:11:31;;;;;;;14.15;9.23;;;;;;;2.43;70.76;101344.56;4940558;28;20614;-76
2022/01/22 09:14:02;;;;;;;10.82;9.48;;;;;;;2.49;70.77;101336.81;4978549;28;20217;-76
2022/01/22 09:16:35;;;;;;;16.60;10.95;;;;;;;2.57;70.74;101326.41;4958062;28;20622;-76
2022/01/22 09:19:06;;;;;;;13.95;9.30;;;;;;;2.62;70.54;101337.66;4959999;28;21215;-75
2022/01/22 09:21:44;;;;;;;11.60;8.40;;;;;;;2.68;70.51;101337.63;4960251;28;20201;-75
2022/01/22 09:24:11;;;;;;;8.50;7.55;;;;;;;2.74;70.05;101340.19;4955154;28;20200;-75
2022/01/22 09:26:36;;;;;;;16.80;9.95;;;;;;;2.77;70.45;101332.38;4973177;28;20216;-75
2022/01/22 09:29:03;;;;;;;15.90;9.90;;;;;;;2.83;70.18;101347.06;4983407;28;20299;-78
2022/01/22 09:31:31;;;;;;;16.92;8.38;;;;;;;2.89;70.15;101336.69;4969666;28;20215;-75
2022/01/22 09:33:59;;;;;;;13.40;9.38;;;;;;;2.93;69.87;101333.19;4965198;28;20889;-76
2022/01/22 09:36:54;;;;;;;13.55;8.55;;;;;;;2.96;69.97;101337.50;4974439;28;20294;-76
2022/01/22 09:39:48;;;;;;;14.77;7.40;;;;;;;2.98;69.64;101343.56;4960093;28;20266;-75
2022/01/22 09:42:43;;;;;;;24.85;17.50;;;;;;;2.99;69.46;101343.53;4958834;28;20219;-75
2022/01/22 09:45:30;;;;;;;15.23;13.73;;;;;;;2.98;69.45;101343.56;4960142;28;20200;-75
2022/01/22 09:48:22;;;;;;;17.48;11.05;;;;;;;2.95;69.87;101351.34;4957341;28;20263;-76
2022/01/22 09:51:06;;;;;;;9.95;7.90;;;;;;;2.93;69.41;101350.50;4974194;28;20218;-78
2022/01/22 09:53:43;;;;;;;12.93;7.47;;;;;;;2.96;69.31;101358.25;4957321;28;20290;-76
2022/01/22 09:56:30;;;;;;;10.70;7.93;;;;;;;3.03;69.42;101355.63;4977660;28;20250;-78
2022/01/22 09:59:15;;;;;;;133.90;69.80;;;;;;;3.14;68.74;101365.97;4979263;28;20319;-76
2022/01/22 10:02:15;;;;;;;144.75;133.27;;;;;;;3.28;68.12;101366.75;4960303;28;20489;-77
2022/01/22 10:04:45;;;;;;;16.05;14.52;;;;;;;3.30;67.83;101359.81;4960418;28;20210;-76
2022/01/22 10:07:34;;;;;;;12.45;10.70;;;;;;;3.26;67.86;101363.28;4958897;28;20787;-76
2022/01/22 10:10:06;;;;;;;10.40;8.75;;;;;;;3.21;67.92;101362.44;4977500;28;20234;-76
2022/01/22 10:12:48;;;;;;;12.32;9.10;;;;;;;3.20;68.11;101368.53;4973765;28;20269;-77
2022/01/22 10:15:20;;;;;;;14.43;10.35;;;;;;;3.25;68.08;101377.16;4978984;28;20810;-78
2022/01/22 10:17:56;;;;;;;15.23;9.20;;;;;;;3.29;67.93;101365.00;4957952;28;20201;-76
2022/01/22 10:20:21;;;;;;;18.02;10.95;;;;;;;3.33;67.87;101359.81;4974845;28;20231;-76
2022/01/22 10:23:18;;;;;;;10.20;9.10;;;;;;;3.41;67.88;101358.91;4974975;28;20200;-76
2022/01/22 10:25:55;;;;;;;9.75;8.77;;;;;;;3.47;67.41;101356.25;4977485;28;20270;-76
2022/01/22 10:28:23;;;;;;;14.45;7.93;;;;;;;3.51;67.04;101356.25;4972684;28;20216;-76
2022/01/22 10:30:56;;;;;;;9.55;8.55;;;;;;;3.58;66.71;101344.06;4956030;28;20200;-76
2022/01/22 10:33:34;;;;;;;6.85;6.25;;;;;;;3.67;66.95;101344.00;4959909;28;20215;-77
2022/01/22 10:36:21;;;;;;;11.65;10.45;;;;;;;3.77;66.73;101350.84;4954386;28;21213;-76
2022/01/22 10:39:10;;;;;;;13.75;9.80;;;;;;;3.88;66.21;101347.28;4956728;28;20217;-78
2022/01/22 10:41:41;;;;;;;14.48;11.13;;;;;;;3.95;66.26;101333.38;4953654;28;20212;-77
2022/01/22 10:44:10;;;;;;;17.73;8.82;;;;;;;4.02;66.09;101329.84;4959375;28;20205;-77
2022/01/22 10:47:02;;;;;;;20.55;12.75;;;;;;;4.10;65.98;101329.78;4956965;28;20228;-77
2022/01/22 10:49:28;;;;;;;14.18;10.05;;;;;;;4.18;65.43;101328.81;4954028;28;20339;-77
2022/01/22 10:51:56;;;;;;;18.20;10.73;;;;;;;4.24;65.42;101330.53;4955363;28;20372;-78
2022/01/22 10:54:27;;;;;;;11.77;9.40;;;;;;;4.31;65.37;101332.16;4958303;28;20279;-77
2022/01/22 10:56:53;;;;;;;12.32;8.82;;;;;;;4.37;65.10;101319.09;4955784;28;20235;-76
2022/01/22 10:59:21;;;;;;;8.40;7.15;;;;;;;4.42;65.07;101312.09;4952241;28;20236;-77
2022/01/22 11:01:54;;;;;;;11.07;7.82;;;;;;;4.47;64.92;101309.44;4952500;28;20538;-77
2022/01/22 11:04:23;;;;;;;9.02;8.23;;;;;;;4.57;64.72;101305.88;4958077;28;20216;-75
2022/01/22 11:06:54;;;;;;;12.15;8.05;;;;;;;4.68;64.36;101297.94;4954874;28;20263;-76
2022/01/22 11:09:21;;;;;;;11.30;8.80;;;;;;;4.78;64.41;101296.06;4956366;28;20248;-77
2022/01/22 11:11:49;;;;;;;9.48;7.80;;;;;;;4.87;64.25;101295.97;4951730;28;20204;-76
2022/01/22 11:14:15;;;;;;;9.48;7.72;;;;;;;4.92;63.80;101293.31;4957839;28;20223;-76
2022/01/22 11:16:45;;;;;;;10.90;7.45;;;;;;;4.91;63.98;101296.78;4955330;28;20287;-76
2022/01/22 11:19:14;;;;;;;12.00;7.07;;;;;;;4.95;63.55;101291.50;4959269;28;20229;-77
2022/01/22 11:21:46;;;;;;;11.75;6.72;;;;;;;5.02;63.93;101289.66;4954189;28;20232;-75
2022/01/22 11:24:14;;;;;;;8.07;6.50;;;;;;;5.06;63.54;101294.81;4958089;28;20593;-77
2022/01/22 11:26:42;;;;;;;10.20;7.53;;;;;;;5.10;63.50;101300.84;4956684;28;20228;-75
2022/01/22 11:29:08;;;;;;;9.98;7.28;;;;;;;5.18;63.35;101308.56;4962685;28;20655;-78
2022/01/22 11:31:37;;;;;;;10.25;6.70;;;;;;;5.25;63.12;101312.81;4975067;28;20952;-76
2022/01/22 11:34:03;;;;;;;8.93;6.13;;;;;;;5.24;63.00;101304.13;4976023;28;20200;-76
2022/01/22 11:36:35;;;;;;;13.25;7.93;;;;;;;5.26;63.14;101296.28;4973935;28;21217;-76
2022/01/22 11:39:02;;;;;;;12.20;7.65;;;;;;;5.27;63.14;101303.22;4977368;28;20232;-78
2022/01/22 11:41:28;;;;;;;9.82;8.05;;;;;;;5.26;62.82;101304.09;4971200;28;20204;-76
2022/01/22 11:46:34;;;;;;;9.00;7.47;;;;;;;5.24;63.18;101291.09;4973140;28;20618;-77
2022/01/22 11:49:29;;;;;;;7.55;6.10;;;;;;;5.18;63.02;101305.94;4971275;28;20219;-76
2022/01/22 11:52:07;;;;;;;19.23;11.50;;;;;;;5.10;63.24;101291.31;4968051;28;20204;-77
2022/01/22 11:54:51;;;;;;;10.52;8.88;;;;;;;5.03;63.02;101292.25;4970304;28;20612;-77
2022/01/22 11:57:16;;;;;;;10.45;8.45;;;;;;;4.98;62.89;101291.47;4973511;28;20197;-76
2022/01/22 11:59:43;;;;;;;11.50;8.37;;;;;;;4.97;63.02;101279.34;4976072;28;20223;-79
2022/01/22 12:02:17;;;;;;;8.00;6.65;;;;;;;5.00;62.27;101281.91;4966386;28;20474;-79
2022/01/22 12:04:42;;;;;;;15.25;11.40;;;;;;;5.05;62.43;101280.09;4968135;28;20236;-77
2022/01/22 12:07:07;;;;;;;8.63;7.67;;;;;;;5.12;62.11;101275.63;4969019;28;21049;-76
2022/01/22 12:15:07;;;;;;;11.32;7.57;;;;;;;5.04;62.09;101272.28;4985539;28;20240;-76
2022/01/22 12:18:00;;;;;;;11.25;7.20;;;;;;;5.05;62.07;101274.88;4981011;28;20211;-76
2022/01/22 12:23:14;;;;;;;8.13;5.75;;;;;;;5.20;61.69;101265.13;4971675;28;20242;-76
2022/01/22 12:25:39;;;;;;;9.23;5.38;;;;;;;5.26;61.71;101259.81;4974455;28;20207;-77
2022/01/22 12:28:10;;;;;;;7.07;5.43;;;;;;;5.32;61.67;101257.97;4973527;28;20941;-76
2022/01/22 12:30:47;;;;;;;13.77;5.50;;;;;;;5.42;61.36;101257.81;4974616;28;20306;-77
2022/01/22 12:33:29;;;;;;;8.75;5.28;;;;;;;5.48;61.61;101256.00;4973089;28;21158;-76
2022/01/22 12:36:02;;;;;;;7.28;3.63;;;;;;;5.58;61.15;101256.69;4973193;28;20261;-77
2022/01/22 12:38:35;;;;;;;5.90;5.22;;;;;;;5.65;60.95;101260.06;4977104;28;20199;-77
2022/01/22 12:41:25;;;;;;;5.85;5.35;;;;;;;5.68;60.72;101239.16;4972077;28;20350;-78
2022/01/22 12:43:52;;;;;;;10.35;5.95;;;;;;;5.71;60.82;101239.94;4951146;28;20197;-78
2022/01/22 12:46:17;;;;;;;5.57;4.95;;;;;;;5.74;60.32;101246.88;4968053;28;20242;-78
2022/01/22 12:48:48;;;;;;;10.33;6.13;;;;;;;5.74;60.20;101247.72;4969310;28;20231;-78
2022/01/22 12:51:14;;;;;;;6.55;5.95;;;;;;;5.68;59.72;101237.41;4971545;28;20211;-78
2022/01/22 12:53:48;;;;;;;6.30;5.60;;;;;;;5.65;59.92;101234.84;4966931;28;20219;-78
2022/01/22 12:56:48;;;;;;;7.25;5.22;;;;;;;5.68;59.93;101231.34;4967316;28;20201;-77
2022/01/22 12:59:10;;;;;;;9.00;5.78;;;;;;;5.68;59.91;101229.59;4969664;28;20803;-77
2022/01/22 13:01:42;;;;;;;9.32;5.38;;;;;;;5.65;59.82;101226.19;4973221;28;20724;-77
2022/01/22 13:04:08;;;;;;;7.78;5.80;;;;;;;5.64;60.12;101232.25;4980882;28;20222;-77
2022/01/22 13:06:54;;;;;;;7.15;5.07;;;;;;;5.69;59.77;101228.69;4947992;28;20935;-77
2022/01/22 13:09:48;;;;;;;7.55;5.20;;;;;;;5.81;59.28;101234.59;4966240;28;20329;-78
2022/01/22 13:12:15;;;;;;;7.30;4.65;;;;;;;5.89;58.89;101232.72;4974940;28;20208;-77
2022/01/22 13:14:41;;;;;;;6.28;4.63;;;;;;;5.98;59.00;101235.16;4978830;28;20299;-76
2022/01/22 13:17:12;;;;;;;7.47;5.30;;;;;;;6.08;59.00;101246.31;4975999;28;20265;-76
2022/01/22 13:19:39;;;;;;;5.88;5.28;;;;;;;6.14;58.59;101244.41;4978929;28;20247;-76
2022/01/22 13:22:05;;;;;;;7.32;5.03;;;;;;;6.21;58.30;101247.75;4974252;28;20239;-76
2022/01/22 13:24:31;;;;;;;7.95;5.22;;;;;;;6.24;58.94;101245.13;4977327;28;20279;-75
2022/01/22 13:27:12;;;;;;;4.35;3.83;;;;;;;6.28;58.87;101236.31;4969575;28;20218;-76
2022/01/22 13:29:41;;;;;;;5.78;4.75;;;;;;;6.29;58.62;101240.66;4974514;28;20254;-77